sensor_id;sensor_type;location;lat;lon;timestamp;P1;durP1;ratioP1;P2;durP2;ratioP2
5458;SDS011;2752;49.992;8.422;2022-12-11T00:02:03;36.80;;;15.40;;
5458;SDS011;2752;49.992;8.422;2022-12-11T00:04:30;35.43;;;15.30;;
5458;SDS011;2752;49.992;8.422;2022-12-11T00:06:56;35.37;;;14.60;;
5458;SDS011;2752;49.992;8.422;2022-12-11T00:09:23;37.67;;;13.90;;
5458;SDS011;2752;49.992;8.422;2022-12-11T00:11:50;38.53;;;16.57;;
5458;SDS011;2752;49.992;8.422;2022-12-11T00:14:16;33.97;;;15.23;;
5458;SDS011;2752;49.992;8.422;2022-12-11T00:16:43;35.77;;;15.13;;
5458;SDS011;2752;49.992;8.422;2022-12-11T00:19:13;34.60;;;14.10;;
5458;SDS011;2752;49.992;8.422;2022-12-11T00:21:40;36.77;;;14.60;;
5458;SDS011;2752;49.992;8.422;2022-12-11T00:24:07;41.80;;;16.13;;
5458;SDS011;2752;49.992;8.422;2022-12-11T00:26:33;34.70;;;16.10;;
5458;SDS011;2752;49.992;8.422;2022-12-11T00:29:00;37.23;;;14.87;;
5458;SDS011;2752;49.992;8.422;2022-12-11T00:31:27;47.63;;;18.23;;
5458;SDS011;2752;49.992;8.422;2022-12-11T00:33:53;44.20;;;15.30;;
5458;SDS011;2752;49.992;8.422;2022-12-11T00:36:22;35.17;;;14.57;;
5458;SDS011;2752;49.992;8.422;2022-12-11T00:38:50;37.87;;;15.17;;
5458;SDS011;2752;49.992;8.422;2022-12-11T00:41:17;40.47;;;17.50;;
5458;SDS011;2752;49.992;8.422;2022-12-11T00:43:45;37.30;;;15.80;;
5458;SDS011;2752;49.992;8.422;2022-12-11T00:46:12;38.90;;;15.40;;
5458;SDS011;2752;49.992;8.422;2022-12-11T00:48:39;38.13;;;16.63;;
5458;SDS011;2752;49.992;8.422;2022-12-11T00:51:05;43.43;;;16.03;;
5458;SDS011;2752;49.992;8.422;2022-12-11T00:53:34;44.17;;;17.27;;
5458;SDS011;2752;49.992;8.422;2022-12-11T00:56:01;41.70;;;17.10;;
5458;SDS011;2752;49.992;8.422;2022-12-11T00:58:33;36.30;;;16.00;;
5458;SDS011;2752;49.992;8.422;2022-12-11T01:01:03;42.60;;;18.20;;
5458;SDS011;2752;49.992;8.422;2022-12-11T01:03:31;44.63;;;18.10;;
5458;SDS011;2752;49.992;8.422;2022-12-11T01:05:58;44.93;;;17.37;;
5458;SDS011;2752;49.992;8.422;2022-12-11T01:08:25;46.47;;;17.47;;
5458;SDS011;2752;49.992;8.422;2022-12-11T01:10:57;39.83;;;15.80;;
5458;SDS011;2752;49.992;8.422;2022-12-11T01:13:26;36.63;;;14.33;;
5458;SDS011;2752;49.992;8.422;2022-12-11T01:15:52;45.73;;;18.10;;
5458;SDS011;2752;49.992;8.422;2022-12-11T01:18:19;39.03;;;16.00;;
5458;SDS011;2752;49.992;8.422;2022-12-11T01:20:46;42.40;;;16.93;;
5458;SDS011;2752;49.992;8.422;2022-12-11T01:23:12;37.83;;;17.17;;
5458;SDS011;2752;49.992;8.422;2022-12-11T01:25:40;35.07;;;15.03;;
5458;SDS011;2752;49.992;8.422;2022-12-11T01:28:08;36.60;;;16.50;;
5458;SDS011;2752;49.992;8.422;2022-12-11T01:30:36;39.70;;;16.10;;
5458;SDS011;2752;49.992;8.422;2022-12-11T01:33:02;42.47;;;17.00;;
5458;SDS011;2752;49.992;8.422;2022-12-11T01:35:29;38.90;;;16.77;;
5458;SDS011;2752;49.992;8.422;2022-12-11T01:37:56;37.87;;;15.80;;
5458;SDS011;2752;49.992;8.422;2022-12-11T01:40:23;36.57;;;15.50;;
5458;SDS011;2752;49.992;8.422;2022-12-11T01:42:50;40.30;;;17.00;;
5458;SDS011;2752;49.992;8.422;2022-12-11T01:45:25;39.40;;;15.37;;
5458;SDS011;2752;49.992;8.422;2022-12-11T01:48:03;35.30;;;16.30;;
5458;SDS011;2752;49.992;8.422;2022-12-11T01:50:34;39.07;;;16.30;;
5458;SDS011;2752;49.992;8.422;2022-12-11T01:53:03;36.87;;;15.93;;
5458;SDS011;2752;49.992;8.422;2022-12-11T01:55:32;39.83;;;16.20;;
5458;SDS011;2752;49.992;8.422;2022-12-11T01:57:59;45.20;;;17.87;;
5458;SDS011;2752;49.992;8.422;2022-12-11T02:00:29;36.93;;;17.70;;
5458;SDS011;2752;49.992;8.422;2022-12-11T02:02:55;45.27;;;17.73;;
5458;SDS011;2752;49.992;8.422;2022-12-11T02:05:22;43.10;;;17.80;;
5458;SDS011;2752;49.992;8.422;2022-12-11T02:07:49;43.60;;;16.50;;
5458;SDS011;2752;49.992;8.422;2022-12-11T02:10:19;44.50;;;18.30;;
5458;SDS011;2752;49.992;8.422;2022-12-11T02:12:51;43.33;;;16.93;;
5458;SDS011;2752;49.992;8.422;2022-12-11T02:15:24;49.03;;;19.00;;
5458;SDS011;2752;49.992;8.422;2022-12-11T02:17:59;49.80;;;18.67;;
5458;SDS011;2752;49.992;8.422;2022-12-11T02:20:41;43.07;;;18.43;;
5458;SDS011;2752;49.992;8.422;2022-12-11T02:23:18;43.27;;;17.97;;
5458;SDS011;2752;49.992;8.422;2022-12-11T02:26:12;49.73;;;18.80;;
5458;SDS011;2752;49.992;8.422;2022-12-11T02:28:58;47.40;;;18.90;;
5458;SDS011;2752;49.992;8.422;2022-12-11T02:31:28;44.53;;;19.40;;
5458;SDS011;2752;49.992;8.422;2022-12-11T02:34:02;43.87;;;19.43;;
5458;SDS011;2752;49.992;8.422;2022-12-11T02:36:34;46.13;;;18.53;;
5458;SDS011;2752;49.992;8.422;2022-12-11T02:39:04;44.63;;;18.70;;
5458;SDS011;2752;49.992;8.422;2022-12-11T02:41:34;46.00;;;18.43;;
5458;SDS011;2752;49.992;8.422;2022-12-11T02:44:03;48.20;;;19.70;;
5458;SDS011;2752;49.992;8.422;2022-12-11T02:46:30;46.43;;;18.03;;
5458;SDS011;2752;49.992;8.422;2022-12-11T02:48:59;38.50;;;18.23;;
5458;SDS011;2752;49.992;8.422;2022-12-11T02:51:31;47.23;;;19.03;;
5458;SDS011;2752;49.992;8.422;2022-12-11T02:54:01;47.77;;;18.73;;
5458;SDS011;2752;49.992;8.422;2022-12-11T02:56:29;39.80;;;18.57;;
5458;SDS011;2752;49.992;8.422;2022-12-11T02:59:05;48.30;;;19.67;;
5458;SDS011;2752;49.992;8.422;2022-12-11T03:01:36;49.97;;;19.77;;
5458;SDS011;2752;49.992;8.422;2022-12-11T03:04:02;43.90;;;19.97;;
5458;SDS011;2752;49.992;8.422;2022-12-11T03:06:30;42.40;;;17.67;;
5458;SDS011;2752;49.992;8.422;2022-12-11T03:09:01;54.53;;;20.33;;
5458;SDS011;2752;49.992;8.422;2022-12-11T03:11:28;45.87;;;19.73;;
5458;SDS011;2752;49.992;8.422;2022-12-11T03:13:55;45.10;;;18.53;;
5458;SDS011;2752;49.992;8.422;2022-12-11T03:16:26;38.87;;;18.43;;
5458;SDS011;2752;49.992;8.422;2022-12-11T03:19:01;41.13;;;19.83;;
5458;SDS011;2752;49.992;8.422;2022-12-11T03:21:37;52.43;;;18.47;;
5458;SDS011;2752;49.992;8.422;2022-12-11T03:24:09;66.00;;;19.77;;
5458;SDS011;2752;49.992;8.422;2022-12-11T03:26:44;42.53;;;19.40;;
5458;SDS011;2752;49.992;8.422;2022-12-11T03:29:16;43.17;;;18.80;;
5458;SDS011;2752;49.992;8.422;2022-12-11T03:31:47;43.53;;;19.57;;
5458;SDS011;2752;49.992;8.422;2022-12-11T03:34:20;51.23;;;19.23;;
5458;SDS011;2752;49.992;8.422;2022-12-11T03:36:50;48.60;;;18.00;;
5458;SDS011;2752;49.992;8.422;2022-12-11T03:39:20;55.13;;;19.80;;
5458;SDS011;2752;49.992;8.422;2022-12-11T03:41:50;49.67;;;20.13;;
5458;SDS011;2752;49.992;8.422;2022-12-11T03:44:20;46.33;;;21.23;;
5458;SDS011;2752;49.992;8.422;2022-12-11T03:46:49;49.93;;;19.83;;
5458;SDS011;2752;49.992;8.422;2022-12-11T03:49:19;44.83;;;19.80;;
5458;SDS011;2752;49.992;8.422;2022-12-11T03:51:49;49.20;;;21.00;;
5458;SDS011;2752;49.992;8.422;2022-12-11T03:54:19;52.23;;;21.10;;
5458;SDS011;2752;49.992;8.422;2022-12-11T03:56:46;43.77;;;18.03;;
5458;SDS011;2752;49.992;8.422;2022-12-11T03:59:15;39.30;;;18.60;;
5458;SDS011;2752;49.992;8.422;2022-12-11T04:01:42;49.47;;;21.83;;
5458;SDS011;2752;49.992;8.422;2022-12-11T04:04:10;41.30;;;17.80;;
5458;SDS011;2752;49.992;8.422;2022-12-11T04:06:37;49.07;;;19.00;;
5458;SDS011;2752;49.992;8.422;2022-12-11T04:09:04;48.90;;;19.53;;
5458;SDS011;2752;49.992;8.422;2022-12-11T04:11:31;48.03;;;18.97;;
5458;SDS011;2752;49.992;8.422;2022-12-11T04:14:00;45.17;;;17.00;;
5458;SDS011;2752;49.992;8.422;2022-12-11T04:16:45;49.73;;;19.53;;
5458;SDS011;2752;49.992;8.422;2022-12-11T04:19:13;43.43;;;18.90;;
5458;SDS011;2752;49.992;8.422;2022-12-11T04:21:58;53.03;;;21.40;;
5458;SDS011;2752;49.992;8.422;2022-12-11T04:24:42;42.97;;;18.50;;
5458;SDS011;2752;49.992;8.422;2022-12-11T04:27:09;40.17;;;17.97;;
5458;SDS011;2752;49.992;8.422;2022-12-11T04:29:36;53.93;;;19.47;;
5458;SDS011;2752;49.992;8.422;2022-12-11T04:32:02;51.83;;;20.57;;
5458;SDS011;2752;49.992;8.422;2022-12-11T04:34:31;41.20;;;18.33;;
5458;SDS011;2752;49.992;8.422;2022-12-11T04:36:57;40.50;;;18.40;;
5458;SDS011;2752;49.992;8.422;2022-12-11T04:39:24;48.13;;;19.20;;
5458;SDS011;2752;49.992;8.422;2022-12-11T04:41:51;51.93;;;21.60;;
5458;SDS011;2752;49.992;8.422;2022-12-11T04:44:17;44.37;;;20.30;;
5458;SDS011;2752;49.992;8.422;2022-12-11T04:46:44;49.47;;;19.73;;
5458;SDS011;2752;49.992;8.422;2022-12-11T04:49:11;60.23;;;22.40;;
5458;SDS011;2752;49.992;8.422;2022-12-11T04:51:38;47.80;;;21.60;;
5458;SDS011;2752;49.992;8.422;2022-12-11T04:54:05;54.87;;;21.63;;
5458;SDS011;2752;49.992;8.422;2022-12-11T04:56:32;49.07;;;21.37;;
5458;SDS011;2752;49.992;8.422;2022-12-11T04:58:59;50.97;;;21.43;;
5458;SDS011;2752;49.992;8.422;2022-12-11T05:01:26;54.13;;;19.90;;
5458;SDS011;2752;49.992;8.422;2022-12-11T05:03:52;50.00;;;20.70;;
5458;SDS011;2752;49.992;8.422;2022-12-11T05:06:19;49.03;;;20.37;;
5458;SDS011;2752;49.992;8.422;2022-12-11T05:08:47;53.43;;;22.50;;
5458;SDS011;2752;49.992;8.422;2022-12-11T05:11:14;48.03;;;18.67;;
5458;SDS011;2752;49.992;8.422;2022-12-11T05:13:41;46.93;;;20.63;;
5458;SDS011;2752;49.992;8.422;2022-12-11T05:16:10;52.20;;;20.40;;
5458;SDS011;2752;49.992;8.422;2022-12-11T05:18:38;54.40;;;21.60;;
5458;SDS011;2752;49.992;8.422;2022-12-11T05:21:06;56.17;;;23.60;;
5458;SDS011;2752;49.992;8.422;2022-12-11T05:23:34;60.30;;;22.43;;
5458;SDS011;2752;49.992;8.422;2022-12-11T05:26:04;51.60;;;20.90;;
5458;SDS011;2752;49.992;8.422;2022-12-11T05:28:32;51.63;;;22.33;;
5458;SDS011;2752;49.992;8.422;2022-12-11T05:31:01;54.10;;;23.37;;
5458;SDS011;2752;49.992;8.422;2022-12-11T05:33:29;53.50;;;22.97;;
5458;SDS011;2752;49.992;8.422;2022-12-11T05:35:56;53.20;;;22.97;;
5458;SDS011;2752;49.992;8.422;2022-12-11T05:38:23;55.87;;;21.10;;
5458;SDS011;2752;49.992;8.422;2022-12-11T05:40:55;55.27;;;22.10;;
5458;SDS011;2752;49.992;8.422;2022-12-11T05:43:24;45.23;;;19.80;;
5458;SDS011;2752;49.992;8.422;2022-12-11T05:45:51;44.70;;;20.00;;
5458;SDS011;2752;49.992;8.422;2022-12-11T05:48:18;56.90;;;18.50;;
5458;SDS011;2752;49.992;8.422;2022-12-11T05:50:54;43.63;;;20.20;;
5458;SDS011;2752;49.992;8.422;2022-12-11T05:53:22;47.87;;;19.07;;
5458;SDS011;2752;49.992;8.422;2022-12-11T05:55:49;46.23;;;19.60;;
5458;SDS011;2752;49.992;8.422;2022-12-11T05:58:16;48.10;;;18.30;;
5458;SDS011;2752;49.992;8.422;2022-12-11T06:00:44;45.67;;;19.33;;
5458;SDS011;2752;49.992;8.422;2022-12-11T06:03:11;50.27;;;20.97;;
5458;SDS011;2752;49.992;8.422;2022-12-11T06:05:37;52.50;;;22.10;;
5458;SDS011;2752;49.992;8.422;2022-12-11T06:08:04;45.77;;;20.07;;
5458;SDS011;2752;49.992;8.422;2022-12-11T06:10:32;41.40;;;18.83;;
5458;SDS011;2752;49.992;8.422;2022-12-11T06:12:59;48.93;;;19.57;;
5458;SDS011;2752;49.992;8.422;2022-12-11T06:15:26;51.63;;;21.60;;
5458;SDS011;2752;49.992;8.422;2022-12-11T06:17:54;50.03;;;20.77;;
5458;SDS011;2752;49.992;8.422;2022-12-11T06:20:20;42.50;;;20.30;;
5458;SDS011;2752;49.992;8.422;2022-12-11T06:22:47;49.93;;;21.20;;
5458;SDS011;2752;49.992;8.422;2022-12-11T06:25:14;47.43;;;20.30;;
5458;SDS011;2752;49.992;8.422;2022-12-11T06:27:41;38.13;;;18.37;;
5458;SDS011;2752;49.992;8.422;2022-12-11T06:30:08;46.50;;;19.97;;
5458;SDS011;2752;49.992;8.422;2022-12-11T06:32:35;52.17;;;21.30;;
5458;SDS011;2752;49.992;8.422;2022-12-11T06:35:03;55.80;;;21.40;;
5458;SDS011;2752;49.992;8.422;2022-12-11T06:37:31;50.80;;;20.47;;
5458;SDS011;2752;49.992;8.422;2022-12-11T06:39:59;52.27;;;22.63;;
5458;SDS011;2752;49.992;8.422;2022-12-11T06:42:27;49.00;;;21.20;;
5458;SDS011;2752;49.992;8.422;2022-12-11T06:44:54;51.70;;;21.17;;
5458;SDS011;2752;49.992;8.422;2022-12-11T06:47:23;45.87;;;21.27;;
5458;SDS011;2752;49.992;8.422;2022-12-11T06:49:50;42.47;;;18.87;;
5458;SDS011;2752;49.992;8.422;2022-12-11T06:52:19;46.17;;;20.73;;
5458;SDS011;2752;49.992;8.422;2022-12-11T06:54:46;48.77;;;20.53;;
5458;SDS011;2752;49.992;8.422;2022-12-11T06:57:12;52.33;;;22.23;;
5458;SDS011;2752;49.992;8.422;2022-12-11T06:59:39;49.50;;;22.60;;
5458;SDS011;2752;49.992;8.422;2022-12-11T07:02:06;46.87;;;21.47;;
5458;SDS011;2752;49.992;8.422;2022-12-11T07:04:34;44.73;;;20.60;;
5458;SDS011;2752;49.992;8.422;2022-12-11T07:07:01;49.97;;;21.97;;
5458;SDS011;2752;49.992;8.422;2022-12-11T07:09:29;52.20;;;21.40;;
5458;SDS011;2752;49.992;8.422;2022-12-11T07:11:56;57.27;;;22.87;;
5458;SDS011;2752;49.992;8.422;2022-12-11T07:14:22;54.27;;;20.80;;
5458;SDS011;2752;49.992;8.422;2022-12-11T07:16:49;47.83;;;21.00;;
5458;SDS011;2752;49.992;8.422;2022-12-11T07:19:16;56.70;;;20.97;;
5458;SDS011;2752;49.992;8.422;2022-12-11T07:21:43;50.03;;;20.40;;
5458;SDS011;2752;49.992;8.422;2022-12-11T07:24:10;44.47;;;19.43;;
5458;SDS011;2752;49.992;8.422;2022-12-11T07:26:38;47.40;;;20.13;;
5458;SDS011;2752;49.992;8.422;2022-12-11T07:29:04;50.70;;;21.67;;
5458;SDS011;2752;49.992;8.422;2022-12-11T07:31:31;49.43;;;20.27;;
5458;SDS011;2752;49.992;8.422;2022-12-11T07:33:59;53.80;;;22.90;;
5458;SDS011;2752;49.992;8.422;2022-12-11T07:36:28;49.20;;;21.07;;
5458;SDS011;2752;49.992;8.422;2022-12-11T07:38:55;52.47;;;21.93;;
5458;SDS011;2752;49.992;8.422;2022-12-11T07:41:22;51.17;;;22.50;;
5458;SDS011;2752;49.992;8.422;2022-12-11T07:43:50;44.60;;;19.53;;
5458;SDS011;2752;49.992;8.422;2022-12-11T07:46:18;39.73;;;18.37;;
5458;SDS011;2752;49.992;8.422;2022-12-11T07:48:47;45.37;;;20.50;;
5458;SDS011;2752;49.992;8.422;2022-12-11T07:51:15;44.33;;;20.90;;
5458;SDS011;2752;49.992;8.422;2022-12-11T07:53:43;47.77;;;19.90;;
5458;SDS011;2752;49.992;8.422;2022-12-11T07:56:11;47.43;;;19.87;;
5458;SDS011;2752;49.992;8.422;2022-12-11T07:58:39;51.00;;;21.30;;
5458;SDS011;2752;49.992;8.422;2022-12-11T08:01:10;50.30;;;21.17;;
5458;SDS011;2752;49.992;8.422;2022-12-11T08:03:38;48.33;;;20.73;;
5458;SDS011;2752;49.992;8.422;2022-12-11T08:06:05;49.93;;;20.77;;
5458;SDS011;2752;49.992;8.422;2022-12-11T08:08:32;49.47;;;18.57;;
5458;SDS011;2752;49.992;8.422;2022-12-11T08:10:59;50.87;;;20.77;;
5458;SDS011;2752;49.992;8.422;2022-12-11T08:13:26;58.63;;;21.70;;
5458;SDS011;2752;49.992;8.422;2022-12-11T08:15:52;49.90;;;20.53;;
5458;SDS011;2752;49.992;8.422;2022-12-11T08:18:20;53.30;;;21.13;;
5458;SDS011;2752;49.992;8.422;2022-12-11T08:20:47;45.67;;;20.53;;
5458;SDS011;2752;49.992;8.422;2022-12-11T08:23:14;42.13;;;19.10;;
5458;SDS011;2752;49.992;8.422;2022-12-11T08:25:40;41.07;;;18.40;;
5458;SDS011;2752;49.992;8.422;2022-12-11T08:28:07;52.53;;;23.10;;
5458;SDS011;2752;49.992;8.422;2022-12-11T08:30:34;49.33;;;20.93;;
5458;SDS011;2752;49.992;8.422;2022-12-11T08:33:03;52.00;;;21.10;;
5458;SDS011;2752;49.992;8.422;2022-12-11T08:35:31;50.60;;;22.90;;
5458;SDS011;2752;49.992;8.422;2022-12-11T08:37:57;44.80;;;21.13;;
5458;SDS011;2752;49.992;8.422;2022-12-11T08:40:24;46.73;;;20.57;;
5458;SDS011;2752;49.992;8.422;2022-12-11T08:42:51;47.13;;;20.30;;
5458;SDS011;2752;49.992;8.422;2022-12-11T08:45:18;48.83;;;19.37;;
5458;SDS011;2752;49.992;8.422;2022-12-11T08:47:44;42.40;;;19.30;;
5458;SDS011;2752;49.992;8.422;2022-12-11T08:50:11;54.60;;;21.50;;
5458;SDS011;2752;49.992;8.422;2022-12-11T08:52:39;44.53;;;21.50;;
5458;SDS011;2752;49.992;8.422;2022-12-11T08:55:06;47.03;;;20.10;;
5458;SDS011;2752;49.992;8.422;2022-12-11T08:57:33;56.80;;;18.00;;
5458;SDS011;2752;49.992;8.422;2022-12-11T09:00:00;43.63;;;19.40;;
5458;SDS011;2752;49.992;8.422;2022-12-11T09:02:27;45.63;;;20.43;;
5458;SDS011;2752;49.992;8.422;2022-12-11T09:04:53;48.40;;;19.37;;
5458;SDS011;2752;49.992;8.422;2022-12-11T09:07:20;46.83;;;20.43;;
5458;SDS011;2752;49.992;8.422;2022-12-11T09:09:48;48.03;;;20.67;;
5458;SDS011;2752;49.992;8.422;2022-12-11T09:12:15;49.03;;;20.47;;
5458;SDS011;2752;49.992;8.422;2022-12-11T09:14:41;47.03;;;19.53;;
5458;SDS011;2752;49.992;8.422;2022-12-11T09:17:08;50.17;;;20.30;;
5458;SDS011;2752;49.992;8.422;2022-12-11T09:19:35;41.87;;;19.33;;
5458;SDS011;2752;49.992;8.422;2022-12-11T09:22:01;46.30;;;21.57;;
5458;SDS011;2752;49.992;8.422;2022-12-11T09:24:28;56.93;;;20.80;;
5458;SDS011;2752;49.992;8.422;2022-12-11T09:26:56;46.73;;;19.60;;
5458;SDS011;2752;49.992;8.422;2022-12-11T09:29:23;51.87;;;20.80;;
5458;SDS011;2752;49.992;8.422;2022-12-11T09:31:50;48.33;;;20.70;;
5458;SDS011;2752;49.992;8.422;2022-12-11T09:34:16;50.93;;;21.87;;
5458;SDS011;2752;49.992;8.422;2022-12-11T09:36:44;53.03;;;22.97;;
5458;SDS011;2752;49.992;8.422;2022-12-11T09:39:11;44.80;;;19.33;;
5458;SDS011;2752;49.992;8.422;2022-12-11T09:41:43;53.00;;;21.80;;
5458;SDS011;2752;49.992;8.422;2022-12-11T09:44:16;46.27;;;19.30;;
5458;SDS011;2752;49.992;8.422;2022-12-11T09:46:48;47.97;;;21.00;;
5458;SDS011;2752;49.992;8.422;2022-12-11T09:49:23;51.17;;;20.30;;
5458;SDS011;2752;49.992;8.422;2022-12-11T09:51:57;47.60;;;19.17;;
5458;SDS011;2752;49.992;8.422;2022-12-11T09:54:32;42.83;;;19.17;;
5458;SDS011;2752;49.992;8.422;2022-12-11T09:57:02;45.07;;;21.17;;
5458;SDS011;2752;49.992;8.422;2022-12-11T09:59:40;46.97;;;19.57;;
5458;SDS011;2752;49.992;8.422;2022-12-11T10:02:17;47.37;;;19.20;;
5458;SDS011;2752;49.992;8.422;2022-12-11T10:04:53;45.20;;;21.43;;
5458;SDS011;2752;49.992;8.422;2022-12-11T10:07:30;45.73;;;19.60;;
5458;SDS011;2752;49.992;8.422;2022-12-11T10:10:05;46.57;;;20.73;;
5458;SDS011;2752;49.992;8.422;2022-12-11T10:12:40;40.97;;;20.13;;
5458;SDS011;2752;49.992;8.422;2022-12-11T10:15:18;44.53;;;19.97;;
5458;SDS011;2752;49.992;8.422;2022-12-11T10:17:56;42.17;;;18.67;;
5458;SDS011;2752;49.992;8.422;2022-12-11T10:20:27;46.00;;;18.80;;
5458;SDS011;2752;49.992;8.422;2022-12-11T10:22:57;45.30;;;18.87;;
5458;SDS011;2752;49.992;8.422;2022-12-11T10:25:25;51.00;;;20.87;;
5458;SDS011;2752;49.992;8.422;2022-12-11T10:27:54;41.73;;;19.70;;
5458;SDS011;2752;49.992;8.422;2022-12-11T10:30:23;53.87;;;21.27;;
5458;SDS011;2752;49.992;8.422;2022-12-11T10:32:52;52.00;;;22.10;;
5458;SDS011;2752;49.992;8.422;2022-12-11T10:35:30;50.50;;;22.77;;
5458;SDS011;2752;49.992;8.422;2022-12-11T10:38:08;50.27;;;21.83;;
5458;SDS011;2752;49.992;8.422;2022-12-11T10:40:39;46.80;;;21.00;;
5458;SDS011;2752;49.992;8.422;2022-12-11T10:43:09;45.97;;;21.20;;
5458;SDS011;2752;49.992;8.422;2022-12-11T10:45:39;43.40;;;19.63;;
5458;SDS011;2752;49.992;8.422;2022-12-11T10:48:14;43.87;;;20.10;;
5458;SDS011;2752;49.992;8.422;2022-12-11T10:50:41;46.47;;;19.77;;
5458;SDS011;2752;49.992;8.422;2022-12-11T10:53:20;51.20;;;21.30;;
5458;SDS011;2752;49.992;8.422;2022-12-11T10:55:48;51.70;;;19.80;;
5458;SDS011;2752;49.992;8.422;2022-12-11T10:58:16;50.47;;;20.33;;
5458;SDS011;2752;49.992;8.422;2022-12-11T11:00:45;46.97;;;20.03;;
5458;SDS011;2752;49.992;8.422;2022-12-11T11:03:27;49.07;;;21.07;;
5458;SDS011;2752;49.992;8.422;2022-12-11T11:06:00;59.80;;;22.30;;
5458;SDS011;2752;49.992;8.422;2022-12-11T11:08:36;43.73;;;20.20;;
5458;SDS011;2752;49.992;8.422;2022-12-11T11:11:04;54.33;;;23.43;;
5458;SDS011;2752;49.992;8.422;2022-12-11T11:13:33;58.43;;;22.93;;
5458;SDS011;2752;49.992;8.422;2022-12-11T11:16:01;60.40;;;24.37;;
5458;SDS011;2752;49.992;8.422;2022-12-11T11:18:31;58.40;;;22.83;;
5458;SDS011;2752;49.992;8.422;2022-12-11T11:20:59;49.77;;;21.40;;
5458;SDS011;2752;49.992;8.422;2022-12-11T11:23:26;58.47;;;23.73;;
5458;SDS011;2752;49.992;8.422;2022-12-11T11:25:54;57.37;;;23.03;;
5458;SDS011;2752;49.992;8.422;2022-12-11T11:28:24;54.10;;;22.23;;
5458;SDS011;2752;49.992;8.422;2022-12-11T11:30:56;60.00;;;23.00;;
5458;SDS011;2752;49.992;8.422;2022-12-11T11:33:27;56.87;;;23.13;;
5458;SDS011;2752;49.992;8.422;2022-12-11T11:35:56;56.90;;;23.37;;
5458;SDS011;2752;49.992;8.422;2022-12-11T11:38:25;51.27;;;22.50;;
5458;SDS011;2752;49.992;8.422;2022-12-11T11:40:56;64.53;;;23.50;;
5458;SDS011;2752;49.992;8.422;2022-12-11T11:43:31;59.33;;;23.93;;
5458;SDS011;2752;49.992;8.422;2022-12-11T11:46:03;54.40;;;22.03;;
5458;SDS011;2752;49.992;8.422;2022-12-11T11:48:39;48.83;;;22.10;;
5458;SDS011;2752;49.992;8.422;2022-12-11T11:51:14;60.53;;;22.33;;
5458;SDS011;2752;49.992;8.422;2022-12-11T11:53:46;60.80;;;21.00;;
5458;SDS011;2752;49.992;8.422;2022-12-11T11:56:16;57.60;;;23.70;;
5458;SDS011;2752;49.992;8.422;2022-12-11T11:58:49;49.67;;;21.33;;
5458;SDS011;2752;49.992;8.422;2022-12-11T12:01:24;60.27;;;23.50;;
5458;SDS011;2752;49.992;8.422;2022-12-11T12:03:52;61.93;;;25.10;;
5458;SDS011;2752;49.992;8.422;2022-12-11T12:06:24;55.87;;;22.60;;
5458;SDS011;2752;49.992;8.422;2022-12-11T12:09:16;59.17;;;22.73;;
5458;SDS011;2752;49.992;8.422;2022-12-11T12:11:53;51.37;;;20.80;;
5458;SDS011;2752;49.992;8.422;2022-12-11T12:14:26;62.43;;;24.07;;
5458;SDS011;2752;49.992;8.422;2022-12-11T12:17:02;62.90;;;25.07;;
5458;SDS011;2752;49.992;8.422;2022-12-11T12:19:48;63.73;;;22.97;;
5458;SDS011;2752;49.992;8.422;2022-12-11T12:22:24;61.63;;;22.30;;
5458;SDS011;2752;49.992;8.422;2022-12-11T12:25:09;59.30;;;24.00;;
5458;SDS011;2752;49.992;8.422;2022-12-11T12:27:45;57.73;;;22.50;;
5458;SDS011;2752;49.992;8.422;2022-12-11T12:30:19;57.07;;;24.10;;
5458;SDS011;2752;49.992;8.422;2022-12-11T12:32:49;62.13;;;24.73;;
5458;SDS011;2752;49.992;8.422;2022-12-11T12:35:29;53.63;;;22.23;;
5458;SDS011;2752;49.992;8.422;2022-12-11T12:38:02;63.10;;;26.40;;
5458;SDS011;2752;49.992;8.422;2022-12-11T12:40:36;62.80;;;23.57;;
5458;SDS011;2752;49.992;8.422;2022-12-11T12:43:19;60.30;;;23.40;;
5458;SDS011;2752;49.992;8.422;2022-12-11T12:45:58;63.95;;;24.55;;
5458;SDS011;2752;49.992;8.422;2022-12-11T12:48:35;63.20;;;24.40;;
5458;SDS011;2752;49.992;8.422;2022-12-11T12:51:03;68.30;;;25.30;;
5458;SDS011;2752;49.992;8.422;2022-12-11T12:53:32;47.50;;;20.10;;
5458;SDS011;2752;49.992;8.422;2022-12-11T12:56:01;58.70;;;22.87;;
5458;SDS011;2752;49.992;8.422;2022-12-11T12:58:38;66.17;;;25.50;;
5458;SDS011;2752;49.992;8.422;2022-12-11T13:01:06;59.27;;;25.27;;
5458;SDS011;2752;49.992;8.422;2022-12-11T13:03:36;56.40;;;23.33;;
5458;SDS011;2752;49.992;8.422;2022-12-11T13:06:26;56.53;;;22.90;;
5458;SDS011;2752;49.992;8.422;2022-12-11T13:08:54;59.73;;;23.70;;
5458;SDS011;2752;49.992;8.422;2022-12-11T13:11:29;50.13;;;22.70;;
5458;SDS011;2752;49.992;8.422;2022-12-11T13:14:00;62.67;;;23.20;;
5458;SDS011;2752;49.992;8.422;2022-12-11T13:16:34;60.57;;;24.00;;
5458;SDS011;2752;49.992;8.422;2022-12-11T13:19:02;51.60;;;21.50;;
5458;SDS011;2752;49.992;8.422;2022-12-11T13:21:42;58.47;;;22.70;;
5458;SDS011;2752;49.992;8.422;2022-12-11T13:24:23;57.50;;;24.43;;
5458;SDS011;2752;49.992;8.422;2022-12-11T13:26:52;60.57;;;22.37;;
5458;SDS011;2752;49.992;8.422;2022-12-11T13:29:29;52.40;;;22.00;;
5458;SDS011;2752;49.992;8.422;2022-12-11T13:31:58;55.60;;;21.70;;
5458;SDS011;2752;49.992;8.422;2022-12-11T13:34:27;50.57;;;22.67;;
5458;SDS011;2752;49.992;8.422;2022-12-11T13:36:58;58.80;;;22.37;;
5458;SDS011;2752;49.992;8.422;2022-12-11T13:39:26;53.93;;;21.97;;
5458;SDS011;2752;49.992;8.422;2022-12-11T13:41:56;61.47;;;23.70;;
5458;SDS011;2752;49.992;8.422;2022-12-11T13:44:28;62.33;;;22.30;;
5458;SDS011;2752;49.992;8.422;2022-12-11T13:46:57;55.77;;;22.10;;
5458;SDS011;2752;49.992;8.422;2022-12-11T13:49:27;57.27;;;24.93;;
5458;SDS011;2752;49.992;8.422;2022-12-11T13:51:59;49.40;;;21.03;;
5458;SDS011;2752;49.992;8.422;2022-12-11T13:54:27;57.63;;;23.87;;
5458;SDS011;2752;49.992;8.422;2022-12-11T13:57:03;56.60;;;23.80;;
5458;SDS011;2752;49.992;8.422;2022-12-11T13:59:41;59.10;;;24.80;;
5458;SDS011;2752;49.992;8.422;2022-12-11T14:02:12;53.47;;;23.00;;
5458;SDS011;2752;49.992;8.422;2022-12-11T14:04:43;58.40;;;23.90;;
5458;SDS011;2752;49.992;8.422;2022-12-11T14:07:14;50.97;;;21.30;;
5458;SDS011;2752;49.992;8.422;2022-12-11T14:09:47;53.57;;;22.17;;
5458;SDS011;2752;49.992;8.422;2022-12-11T14:12:15;57.07;;;22.07;;
5458;SDS011;2752;49.992;8.422;2022-12-11T14:14:44;51.07;;;21.30;;
5458;SDS011;2752;49.992;8.422;2022-12-11T14:17:16;49.60;;;19.97;;
5458;SDS011;2752;49.992;8.422;2022-12-11T14:19:48;49.40;;;20.27;;
5458;SDS011;2752;49.992;8.422;2022-12-11T14:22:16;51.67;;;21.53;;
5458;SDS011;2752;49.992;8.422;2022-12-11T14:24:48;56.00;;;23.33;;
5458;SDS011;2752;49.992;8.422;2022-12-11T14:27:16;48.97;;;19.90;;
5458;SDS011;2752;49.992;8.422;2022-12-11T14:29:43;50.83;;;21.10;;
5458;SDS011;2752;49.992;8.422;2022-12-11T14:32:12;59.63;;;22.63;;
5458;SDS011;2752;49.992;8.422;2022-12-11T14:34:45;57.87;;;20.20;;
5458;SDS011;2752;49.992;8.422;2022-12-11T14:37:15;54.87;;;22.23;;
5458;SDS011;2752;49.992;8.422;2022-12-11T14:39:47;53.67;;;21.80;;
5458;SDS011;2752;49.992;8.422;2022-12-11T14:42:20;49.57;;;21.57;;
5458;SDS011;2752;49.992;8.422;2022-12-11T14:44:50;53.00;;;21.30;;
5458;SDS011;2752;49.992;8.422;2022-12-11T14:47:22;52.60;;;21.17;;
5458;SDS011;2752;49.992;8.422;2022-12-11T14:49:51;51.80;;;21.33;;
5458;SDS011;2752;49.992;8.422;2022-12-11T14:52:24;50.90;;;20.67;;
5458;SDS011;2752;49.992;8.422;2022-12-11T14:54:56;55.53;;;21.47;;
5458;SDS011;2752;49.992;8.422;2022-12-11T14:57:28;43.30;;;18.40;;
5458;SDS011;2752;49.992;8.422;2022-12-11T14:59:57;45.23;;;20.13;;
5458;SDS011;2752;49.992;8.422;2022-12-11T15:02:25;50.23;;;19.13;;
5458;SDS011;2752;49.992;8.422;2022-12-11T15:04:58;40.90;;;17.87;;